Terminal Aerodrome Forecast
Issued by NWS Sterling, VA

Current Version | Previous Version | Text Only | Print | Product List | Glossary Off
Versions: 1 2 3 4 5 6 7 8 9 10 11 12 13 14 15 16 17 18 19 20 21 22 23 24 25 26 27

000
FTUS41 KLWX 252300
TAFIAD
TAF
KIAD 252331Z 2600/2706 VRB03KT P6SM SCT250
     FM260500 01004KT P6SM -RA OVC090
     FM260900 02008KT 6SM -RASN OVC050
     FM261200 02009KT 1 1/2SM -RASN OVC015
     FM261500 01007KT 1SM -SN OVC003
     FM261800 34010KT 1/2SM SNRA OVC003
     FM262100 33010KT 5SM -SN SCT004 OVC010
     FM270000 31005KT P6SM BKN050=

USA.gov is the U.S. government's official web portal to all federal, state and local government web resources and services.